Time;durP1;ratioP1;P1;durP2;ratioP2;P2;SDS_P1;SDS_P2;PMS_P1;PMS_P2;Temp;Humidity;BMP_temperature;BMP_pressure;BME280_temperature;BME280_humidity;BME280_pressure;Samples;Min_cycle;Max_cycle;Signal;HPM_P1;HPM_P2
2022/04/26 03:38:33;;;;;;;45.07;35.93;;;8.70;99.90;;;;;;5057860;28;20484;-58
2022/04/26 03:41:02;;;;;;;45.37;36.80;;;8.70;99.90;;;;;;5057569;28;20516;-58
2022/04/26 03:43:40;;;;;;;48.80;37.20;;;8.80;99.90;;;;;;5057517;28;20466;-58
2022/04/26 03:46:10;;;;;;;45.87;36.40;;;8.80;99.90;;;;;;5068259;28;20449;-58
2022/04/26 03:48:37;;;;;;;46.97;38.07;;;8.80;99.90;;;;;;5077723;28;20457;-58
2022/04/26 03:51:05;;;;;;;44.67;35.87;;;8.80;99.90;;;;;;5077396;28;20807;-58
2022/04/26 03:53:32;;;;;;;45.10;37.57;;;8.80;99.90;;;;;;5076420;28;20431;-58
2022/04/26 03:56:02;;;;;;;51.07;36.37;;;8.90;99.90;;;;;;5076151;28;20489;-59
2022/04/26 03:58:29;;;;;;;41.03;35.37;;;8.80;99.90;;;;;;5077556;28;20489;-58
2022/04/26 04:00:56;;;;;;;43.70;34.47;;;8.70;99.90;;;;;;5077415;28;20530;-58
2022/04/26 04:03:27;;;;;;;41.07;33.53;;;8.70;99.90;;;;;;5076959;28;20453;-58
2022/04/26 04:05:57;;;;;;;43.87;35.37;;;8.50;99.90;;;;;;5077561;28;20485;-57
2022/04/26 04:08:26;;;;;;;39.40;32.87;;;8.60;99.90;;;;;;5077368;28;20461;-58
2022/04/26 04:10:55;;;;;;;43.20;32.40;;;8.60;99.90;;;;;;5077524;28;20435;-58
2022/04/26 04:13:27;;;;;;;42.10;34.07;;;8.60;99.90;;;;;;5076126;28;20461;-59
2022/04/26 04:15:57;;;;;;;40.63;33.20;;;8.70;99.90;;;;;;5077304;28;20464;-58
2022/04/26 04:21:16;;;;;;;42.33;33.97;;;8.70;99.90;;;;;;5077372;28;20942;-58
2022/04/26 04:23:47;;;;;;;40.83;32.30;;;8.70;99.90;;;;;;5077551;28;20468;-55
2022/04/26 04:26:13;;;;;;;43.97;35.13;;;8.70;99.90;;;;;;5076257;28;20453;-54
2022/04/26 04:28:43;;;;;;;45.73;33.00;;;8.70;99.90;;;;;;5082331;28;20872;-58
2022/04/26 04:31:11;;;;;;;44.60;33.30;;;8.70;99.90;;;;;;5097480;28;20509;-56
2022/04/26 04:33:38;;;;;;;42.83;32.40;;;8.70;99.90;;;;;;5095273;28;20466;-57
2022/04/26 04:36:05;;;;;;;46.30;35.10;;;8.60;99.90;;;;;;5075380;28;20442;-57
2022/04/26 04:38:38;;;;;;;44.20;36.10;;;8.60;99.90;;;;;;5076193;28;20490;-58
2022/04/26 04:41:06;;;;;;;44.60;37.07;;;8.60;99.90;;;;;;5077492;28;20748;-58
2022/04/26 04:43:33;;;;;;;48.53;36.70;;;8.60;99.90;;;;;;5077438;28;20757;-58
2022/04/26 04:46:01;;;;;;;51.93;37.17;;;8.50;99.90;;;;;;5076629;28;20493;-57
2022/04/26 04:48:37;;;;;;;53.73;39.40;;;8.30;99.90;;;;;;5077052;28;20462;-58
2022/04/26 04:51:07;;;;;;;49.70;40.27;;;8.30;99.90;;;;;;5077373;28;20559;-57
2022/04/26 04:53:37;;;;;;;52.67;41.30;;;8.30;99.90;;;;;;5076325;28;20492;-58
2022/04/26 04:56:10;;;;;;;48.20;39.30;;;8.40;99.90;;;;;;5076056;28;20530;-59
2022/04/26 04:58:38;;;;;;;48.63;36.07;;;8.40;99.90;;;;;;5075854;28;20462;-59
2022/04/26 05:01:08;;;;;;;46.60;35.93;;;8.40;99.90;;;;;;5076123;28;20958;-59
2022/04/26 05:03:37;;;;;;;50.30;36.13;;;8.50;99.90;;;;;;5075477;28;20461;-57
2022/04/26 05:06:15;;;;;;;48.43;36.10;;;8.50;99.90;;;;;;5076035;28;20479;-58
2022/04/26 05:08:42;;;;;;;48.33;38.33;;;8.50;99.90;;;;;;5077148;28;20465;-59
2022/04/26 05:11:13;;;;;;;49.03;37.97;;;8.50;99.90;;;;;;5076394;28;20589;-58
2022/04/26 05:13:43;;;;;;;48.00;37.17;;;8.40;99.90;;;;;;5076934;28;20526;-57
2022/04/26 05:16:18;;;;;;;45.43;37.50;;;8.40;99.90;;;;;;5076823;28;20857;-58
2022/04/26 05:18:45;;;;;;;55.60;40.17;;;8.40;99.90;;;;;;5075986;28;20511;-57
2022/04/26 05:21:18;;;;;;;54.67;41.87;;;8.40;99.90;;;;;;5075490;28;20452;-57
2022/04/26 05:26:39;;;;;;;56.07;41.27;;;8.20;99.90;;;;;;5067578;28;20436;-58
2022/04/26 05:29:06;;;;;;;56.93;42.10;;;8.10;99.90;;;;;;5074026;28;20468;-57
2022/04/26 05:31:41;;;;;;;58.67;45.00;;;8.10;99.90;;;;;;5073917;28;20508;-58
2022/04/26 05:34:11;;;;;;;56.50;41.60;;;8.20;99.90;;;;;;5075867;28;20452;-58
2022/04/26 05:36:43;;;;;;;56.50;41.63;;;8.30;99.90;;;;;;5075772;28;20928;-60
2022/04/26 05:39:13;;;;;;;55.73;42.93;;;8.30;99.90;;;;;;5073724;28;20853;-60
2022/04/26 05:41:42;;;;;;;63.73;43.33;;;8.40;99.90;;;;;;5073974;28;20460;-60
2022/04/26 05:44:11;;;;;;;64.80;45.33;;;8.40;99.90;;;;;;5075083;28;20493;-61
2022/04/26 05:46:38;;;;;;;65.90;48.70;;;8.30;99.90;;;;;;5073442;28;20503;-60
2022/04/26 05:49:08;;;;;;;70.53;50.83;;;8.20;99.90;;;;;;5073379;28;20511;-59
2022/04/26 05:51:37;;;;;;;69.20;47.17;;;8.20;99.90;;;;;;5074481;28;20527;-59
2022/04/26 05:54:09;;;;;;;68.73;47.17;;;8.00;99.90;;;;;;5075654;28;20457;-57
2022/04/26 05:56:37;;;;;;;65.30;48.73;;;7.90;99.90;;;;;;5076283;28;20507;-59
2022/04/26 05:59:10;;;;;;;71.47;49.37;;;8.00;99.90;;;;;;5075654;28;20464;-59
2022/04/26 06:01:38;;;;;;;81.50;48.73;;;8.10;99.90;;;;;;5073735;28;20461;-59
2022/04/26 06:04:14;;;;;;;81.40;51.93;;;8.10;99.90;;;;;;5074466;28;20829;-59
2022/04/26 06:06:41;;;;;;;78.80;47.20;;;8.10;99.90;;;;;;5075052;28;20475;-60
2022/04/26 06:09:13;;;;;;;71.97;47.00;;;8.00;99.90;;;;;;5072429;28;20814;-60
2022/04/26 06:11:46;;;;;;;70.50;43.43;;;7.90;99.90;;;;;;5072534;28;20598;-60
2022/04/26 06:14:17;;;;;;;63.00;43.47;;;7.90;99.90;;;;;;5072014;28;20453;-59
2022/04/26 06:16:47;;;;;;;67.13;42.07;;;7.90;99.90;;;;;;5076527;28;20431;-60
2022/04/26 06:19:26;;;;;;;53.00;36.67;;;7.80;99.90;;;;;;5079306;28;20812;-60
2022/04/26 06:21:53;;;;;;;49.60;36.07;;;7.70;99.90;;;;;;5083662;28;20464;-60
2022/04/26 06:24:20;;;;;;;57.40;39.83;;;7.70;99.90;;;;;;5078686;28;20465;-59
2022/04/26 06:26:54;;;;;;;61.73;39.97;;;7.70;99.90;;;;;;5080838;28;20493;-58
2022/04/26 06:29:25;;;;;;;58.63;40.53;;;7.70;99.90;;;;;;5085641;28;20465;-60
2022/04/26 06:32:03;;;;;;;67.37;41.43;;;7.50;99.90;;;;;;5078247;28;20527;-60
2022/04/26 06:34:33;;;;;;;61.60;40.43;;;7.50;99.90;;;;;;5087505;28;20460;-60
2022/04/26 06:37:08;;;;;;;58.10;39.80;;;7.40;99.90;;;;;;5082361;28;20515;-60
2022/04/26 06:39:37;;;;;;;53.53;36.70;;;7.50;99.90;;;;;;5079197;28;20461;-59
2022/04/26 06:42:07;;;;;;;53.57;37.70;;;7.50;99.90;;;;;;5078657;28;20529;-59
2022/04/26 06:44:38;;;;;;;51.60;32.80;;;7.60;99.90;;;;;;5077957;28;20462;-60
2022/04/26 06:47:06;;;;;;;49.50;34.80;;;7.70;99.90;;;;;;5086165;28;20807;-59
2022/04/26 06:49:33;;;;;;;51.30;35.70;;;7.60;99.90;;;;;;5078980;28;20770;-59
2022/04/26 06:52:04;;;;;;;49.20;34.87;;;7.60;99.90;;;;;;5086733;28;20461;-59
2022/04/26 06:54:34;;;;;;;51.17;33.43;;;7.70;99.90;;;;;;5079245;28;20889;-59
2022/04/26 06:57:08;;;;;;;57.60;34.80;;;7.60;99.90;;;;;;5077662;28;20457;-60
2022/04/26 06:59:36;;;;;;;45.90;34.17;;;7.60;99.90;;;;;;5075575;28;20457;-59
2022/04/26 07:02:04;;;;;;;53.20;34.17;;;7.60;99.90;;;;;;5074044;28;20484;-59
2022/04/26 07:04:31;;;;;;;49.83;35.93;;;7.70;99.90;;;;;;5076706;28;20464;-58
2022/04/26 07:06:58;;;;;;;46.43;33.47;;;7.90;99.90;;;;;;5077863;28;20547;-59
2022/04/26 07:09:27;;;;;;;45.20;34.80;;;7.90;99.90;;;;;;5078473;28;20432;-60
2022/04/26 07:11:54;;;;;;;49.03;33.57;;;8.00;99.90;;;;;;5085776;28;20549;-60
2022/04/26 07:14:21;;;;;;;44.10;33.77;;;8.30;99.90;;;;;;5077413;28;20439;-58
2022/04/26 07:16:50;;;;;;;43.83;31.43;;;8.10;99.90;;;;;;5076509;28;20900;-61
2022/04/26 07:19:17;;;;;;;46.87;33.97;;;8.10;99.90;;;;;;5077913;28;20472;-60
2022/04/26 07:21:46;;;;;;;39.60;30.13;;;8.00;99.90;;;;;;5075644;28;20515;-59
2022/04/26 07:24:20;;;;;;;41.70;29.83;;;8.10;99.90;;;;;;5077519;28;20496;-60
2022/04/26 07:26:54;;;;;;;39.67;28.63;;;7.90;99.90;;;;;;5076088;28;20501;-60
2022/04/26 07:29:21;;;;;;;43.47;31.57;;;7.80;99.90;;;;;;5076892;28;20501;-60
2022/04/26 07:31:55;;;;;;;45.27;29.83;;;7.90;99.90;;;;;;5078436;28;20507;-61
2022/04/26 07:34:25;;;;;;;37.83;27.00;;;8.00;99.90;;;;;;5076326;28;20782;-61
2022/04/26 07:36:59;;;;;;;40.30;29.80;;;7.90;99.90;;;;;;5076855;28;20457;-61
2022/04/26 07:39:28;;;;;;;39.97;29.33;;;7.90;99.90;;;;;;5076310;28;20954;-61
2022/04/26 07:41:57;;;;;;;39.73;27.80;;;7.90;99.90;;;;;;5063695;28;20461;-61
2022/04/26 07:47:11;;;;;;;39.97;28.50;;;8.00;99.90;;;;;;5076711;28;20484;-61
2022/04/26 07:49:38;;;;;;;38.90;28.43;;;8.00;99.90;;;;;;5076833;28;20461;-61
2022/04/26 07:52:06;;;;;;;37.53;28.93;;;8.10;99.90;;;;;;5076296;28;20465;-61
2022/04/26 07:54:35;;;;;;;41.07;29.70;;;8.00;99.90;;;;;;5076381;28;20508;-61
2022/04/26 07:57:04;;;;;;;35.70;29.47;;;8.10;99.90;;;;;;5077430;28;20468;-61
2022/04/26 07:59:31;;;;;;;39.47;30.27;;;8.10;99.90;;;;;;5077374;28;20507;-61
2022/04/26 08:02:01;;;;;;;33.10;27.13;;;8.20;99.90;;;;;;5076263;28;20515;-61
2022/04/26 08:04:30;;;;;;;35.20;27.57;;;8.30;99.90;;;;;;5076293;28;20846;-61
2022/04/26 08:07:02;;;;;;;34.87;28.47;;;8.30;99.90;;;;;;5075955;28;20953;-61
2022/04/26 08:09:39;;;;;;;33.93;27.07;;;8.40;99.90;;;;;;5076378;28;20519;-62
2022/04/26 08:12:07;;;;;;;36.00;27.10;;;8.30;99.90;;;;;;5076629;28;20442;-61
2022/04/26 08:14:37;;;;;;;37.90;27.27;;;8.50;99.90;;;;;;5076469;28;20461;-61
2022/04/26 08:17:07;;;;;;;34.27;28.50;;;8.60;99.90;;;;;;5076817;28;20462;-61
2022/04/26 08:19:37;;;;;;;35.60;26.97;;;8.50;99.90;;;;;;5076803;28;20519;-61
2022/04/26 08:22:07;;;;;;;36.13;29.43;;;8.50;99.90;;;;;;5076417;28;20518;-61
2022/04/26 08:27:33;;;;;;;37.93;28.90;;;8.50;99.90;;;;;;5014739;28;20499;-61
2022/04/26 08:30:04;;;;;;;35.60;30.00;;;8.50;99.90;;;;;;5014282;28;20464;-61
2022/04/26 08:32:41;;;;;;;34.33;28.50;;;8.80;99.90;;;;;;5043217;28;20527;-62
2022/04/26 08:35:13;;;;;;;41.50;31.60;;;8.90;99.90;;;;;;5075911;28;20551;-62
2022/04/26 08:37:53;;;;;;;37.10;29.70;;;8.90;99.90;;;;;;5075632;28;20465;-62
2022/04/26 08:40:20;;;;;;;39.53;30.80;;;9.00;99.90;;;;;;5059421;28;20468;-62
2022/04/26 08:42:50;;;;;;;40.23;32.83;;;9.20;99.90;;;;;;5075598;28;20465;-62
2022/04/26 08:45:19;;;;;;;46.03;35.37;;;9.40;99.90;;;;;;5059654;28;20465;-62
2022/04/26 08:53:24;;;;;;;64.20;47.90;;;9.70;99.90;;;;;;5074766;28;20448;-62
2022/04/26 08:55:52;;;;;;;68.33;48.43;;;9.60;99.90;;;;;;5075263;28;21219;-62
2022/04/26 08:58:32;;;;;;;69.47;51.27;;;9.70;99.90;;;;;;5075911;28;20472;-63
2022/04/26 09:01:18;;;;;;;71.47;51.07;;;9.60;99.90;;;;;;5076243;28;20465;-63
2022/04/26 09:03:55;;;;;;;70.43;50.63;;;9.50;99.90;;;;;;5076393;28;20489;-63
2022/04/26 09:06:35;;;;;;;70.77;50.87;;;9.50;99.90;;;;;;5075751;28;20960;-62
2022/04/26 09:09:12;;;;;;;71.73;51.03;;;9.40;99.90;;;;;;5076755;28;20548;-63
2022/04/26 09:11:44;;;;;;;70.30;50.00;;;9.50;99.90;;;;;;5076073;28;20464;-63
2022/04/26 09:14:33;;;;;;;72.07;52.10;;;9.30;99.90;;;;;;5075392;28;20461;-63
2022/04/26 09:17:07;;;;;;;68.60;51.97;;;9.30;99.90;;;;;;5075128;28;20902;-63
2022/04/26 09:19:47;;;;;;;65.87;48.97;;;9.40;99.90;;;;;;5059930;28;20849;-63
2022/04/26 09:22:20;;;;;;;64.97;49.37;;;9.30;99.90;;;;;;5075475;28;20463;-63
2022/04/26 09:25:04;;;;;;;64.67;51.93;;;9.40;99.90;;;;;;5075790;28;20465;-63
2022/04/26 09:27:37;;;;;;;60.33;47.67;;;9.60;99.90;;;;;;5075637;28;20715;-63
2022/04/26 09:30:13;;;;;;;53.60;40.70;;;9.70;99.90;;;;;;5075550;28;20465;-63
2022/04/26 09:32:48;;;;;;;55.97;42.60;;;9.80;99.90;;;;;;5075734;28;20488;-63
2022/04/26 09:35:28;;;;;;;58.47;44.50;;;9.80;99.90;;;;;;5076203;28;20514;-64
2022/04/26 09:37:57;;;;;;;54.57;43.87;;;9.90;99.90;;;;;;5075575;28;20515;-64
2022/04/26 09:40:33;;;;;;;62.37;49.10;;;10.20;99.90;;;;;;5075566;28;20465;-64
2022/04/26 09:43:00;;;;;;;55.83;46.17;;;10.30;99.90;;;;;;5075792;28;20473;-64
2022/04/26 09:45:30;;;;;;;58.33;43.77;;;10.40;99.90;;;;;;5075657;28;20440;-64
2022/04/26 09:47:58;;;;;;;54.27;44.93;;;10.50;99.90;;;;;;5083339;28;20443;-64
2022/04/26 09:50:34;;;;;;;54.40;46.30;;;10.40;99.90;;;;;;5079458;28;20791;-64
2022/04/26 09:53:06;;;;;;;59.77;47.87;;;10.60;99.90;;;;;;5077655;28;20508;-64
2022/04/26 09:55:33;;;;;;;58.07;45.27;;;10.70;99.90;;;;;;5086382;28;20463;-65
2022/04/26 09:58:03;;;;;;;57.63;49.43;;;10.80;99.90;;;;;;5078830;28;20461;-64
2022/04/26 10:00:33;;;;;;;53.73;43.73;;;10.80;99.90;;;;;;5078347;28;20915;-64
2022/04/26 10:03:08;;;;;;;55.07;46.63;;;10.90;99.90;;;;;;5077739;28;20518;-65
2022/04/26 10:05:40;;;;;;;53.93;45.00;;;11.10;99.90;;;;;;5076643;28;20464;-65
2022/04/26 10:08:10;;;;;;;50.33;44.83;;;11.40;99.90;;;;;;5077469;28;20457;-65
2022/04/26 10:10:41;;;;;;;50.03;41.30;;;11.60;60.50;;;;;;5074661;28;20563;-65
2022/04/26 10:15:58;;;;;;;47.20;42.00;;;11.70;99.90;;;;;;5065114;28;20428;-65
2022/04/26 10:18:38;;;;;;;45.10;40.33;;;11.80;1.00;;;;;;5077825;28;20467;-65
2022/04/26 10:21:07;;;;;;;44.43;39.83;;;11.90;1.00;;;;;;5074496;28;20469;-65
2022/04/26 10:24:14;;;;;;;44.20;39.17;;;11.80;1.00;;;;;;5076278;28;20518;-65
2022/04/26 10:26:43;;;;;;;39.27;35.17;;;12.00;1.00;;;;;;5074851;28;20497;-65
2022/04/26 10:29:20;;;;;;;37.97;33.70;;;12.20;99.90;;;;;;5079303;28;20885;-66
2022/04/26 10:31:58;;;;;;;38.73;34.80;;;12.50;99.90;;;;;;5074997;28;20526;-66
2022/04/26 10:34:35;;;;;;;33.27;30.07;;;13.00;86.50;;;;;;5078064;28;20542;-65
2022/04/26 10:37:32;;;;;;;34.47;30.67;;;14.20;1.00;;;;;;5077215;28;20457;-65
2022/04/26 10:40:05;;;;;;;36.90;33.40;;;14.50;1.00;;;;;;5075189;28;20492;-66
2022/04/26 10:42:35;;;;;;;30.53;27.77;;;15.40;1.00;;;;;;5078274;28;20457;-66
2022/04/26 10:45:09;;;;;;;34.10;30.53;;;15.30;1.00;;;;;;5078129;28;20555;-66
2022/04/26 10:47:37;;;;;;;31.40;28.40;;;15.40;1.00;;;;;;5071266;28;20486;-66
2022/04/26 10:50:08;;;;;;;31.10;28.10;;;15.60;1.00;;;;;;5076926;28;20527;-65
2022/04/26 10:52:55;;;;;;;25.13;22.63;;;15.20;1.00;;;;;;5063607;28;20465;-66
2022/04/26 10:55:35;;;;;;;26.37;23.87;;;14.10;1.00;;;;;;5078245;28;20464;-65
2022/04/26 11:00:47;;;;;;;26.03;23.47;;;14.30;1.00;;;;;;5077334;28;20452;-64
2022/04/26 11:03:19;;;;;;;27.87;25.07;;;14.50;1.00;;;;;;5076911;28;20461;-65
2022/04/26 11:05:49;;;;;;;26.90;24.30;;;14.60;1.00;;;;;;5074475;28;20796;-65
2022/04/26 11:08:25;;;;;;;26.33;23.73;;;14.30;1.00;;;;;;5077109;28;20462;-64
2022/04/26 11:11:11;;;;;;;27.53;24.87;;;15.00;1.00;;;;;;5077610;28;20522;-64
2022/04/26 11:13:40;;;;;;;27.67;25.07;;;14.60;1.00;;;;;;5077293;28;20469;-65
2022/04/26 11:16:15;;;;;;;25.83;23.33;;;15.80;1.00;;;;;;5078031;28;20503;-64
2022/04/26 11:18:45;;;;;;;26.13;23.63;;;15.80;99.90;;;;;;5078029;28;20758;-64
2022/04/26 11:21:24;;;;;;;25.93;23.63;;;15.10;99.90;;;;;;5077077;28;20878;-64
2022/04/26 11:29:43;;;;;;;27.63;25.03;;;14.80;1.00;;;;;;5065938;28;20767;-64
2022/04/26 11:32:28;;;;;;;27.27;24.60;;;15.10;1.00;;;;;;5076502;28;20910;-64
2022/04/26 11:34:56;;;;;;;26.87;24.13;;;15.20;1.00;;;;;;5074278;28;21391;-64
2022/04/26 11:37:30;;;;;;;26.10;22.80;;;15.00;99.90;;;;;;5076628;28;20769;-64
2022/04/26 11:40:01;;;;;;;26.17;23.60;;;14.60;1.00;;;;;;5077400;28;20470;-64
2022/04/26 11:42:37;;;;;;;24.57;22.17;;;14.30;1.00;;;;;;5073922;28;20461;-64
2022/04/26 11:45:11;;;;;;;25.73;23.33;;;14.00;1.00;;;;;;5072833;28;20480;-64
2022/04/26 11:47:51;;;;;;;25.57;22.97;;;14.10;1.00;;;;;;5076184;28;20491;-63
2022/04/26 11:50:26;;;;;;;25.10;22.60;;;14.30;1.00;;;;;;5075939;28;20461;-63
2022/04/26 11:53:07;;;;;;;26.40;23.80;;;14.50;1.00;;;;;;5069709;28;20468;-63
2022/04/26 11:55:41;;;;;;;26.03;23.33;;;14.80;1.00;;;;;;5071835;28;20511;-63
2022/04/26 12:01:07;;;;;;;23.70;21.57;;;15.50;99.90;;;;;;5074538;28;20889;-62
2022/04/26 12:03:39;;;;;;;24.20;21.90;;;15.30;99.90;;;;;;5072114;28;20453;-65
2022/04/26 12:06:14;;;;;;;24.00;21.90;;;15.70;99.90;;;;;;5070638;28;20925;-63
2022/04/26 12:08:47;;;;;;;24.53;22.23;;;16.10;99.90;;;;;;5075624;28;20812;-62
2022/04/26 12:11:27;;;;;;;22.20;20.30;;;16.70;99.90;;;;;;5076650;28;20461;-62
2022/04/26 12:14:12;;;;;;;22.67;20.67;;;17.70;99.90;;;;;;5075793;28;20484;-63
2022/04/26 12:16:46;;;;;;;21.07;19.33;;;17.70;99.90;;;;;;5077209;28;20449;-64
2022/04/26 12:19:14;;;;;;;20.37;18.67;;;17.10;99.90;;;;;;5083775;28;20899;-63
2022/04/26 12:21:51;;;;;;;18.93;17.23;;;17.10;99.90;;;;;;5080658;28;20514;-63
2022/04/26 12:24:21;;;;;;;21.57;19.67;;;17.90;99.90;;;;;;5074478;28;20771;-63
2022/04/26 12:27:02;;;;;;;20.63;18.83;;;18.20;99.90;;;;;;5074502;28;20489;-63
2022/04/26 12:29:32;;;;;;;18.77;16.90;;;18.70;99.90;;;;;;5072357;28;20472;-65
2022/04/26 12:32:08;;;;;;;19.50;17.90;;;19.20;99.90;;;;;;5074372;28;20468;-64
2022/04/26 12:34:35;;;;;;;18.40;16.90;;;19.20;99.90;;;;;;5072972;28;20457;-64
2022/04/26 12:37:06;;;;;;;20.20;18.33;;;18.90;99.90;;;;;;5074415;28;20450;-64
2022/04/26 12:39:48;;;;;;;19.23;17.70;;;18.90;99.90;;;;;;5075475;28;20458;-64
2022/04/26 12:42:17;;;;;;;18.30;16.80;;;18.70;99.90;;;;;;5073259;28;20461;-64
2022/04/26 12:44:55;;;;;;;17.83;16.43;;;19.30;99.90;;;;;;5071681;28;20457;-63
2022/04/26 12:50:32;;;;;;;17.83;16.40;;;20.00;99.90;;;;;;5068655;28;20444;-64
2022/04/26 12:53:00;;;;;;;17.37;15.90;;;20.20;99.90;;;;;;5071813;28;20473;-64
2022/04/26 12:55:32;;;;;;;15.80;14.40;;;20.60;99.90;;;;;;5074455;28;20457;-64
2022/04/26 12:58:05;;;;;;;17.23;15.80;;;20.10;99.90;;;;;;5074829;28;20547;-64
2022/04/26 13:00:40;;;;;;;17.83;16.10;;;19.00;99.90;;;;;;5071455;28;20458;-64
2022/04/26 13:03:19;;;;;;;18.97;17.23;;;18.30;99.90;;;;;;5074809;28;20972;-64
2022/04/26 13:05:48;;;;;;;19.57;17.63;;;17.70;99.90;;;;;;5074327;28;20555;-63
2022/04/26 13:08:20;;;;;;;16.13;14.67;;;17.70;99.90;;;;;;5074756;28;20499;-63
2022/04/26 13:10:56;;;;;;;16.93;15.27;;;17.90;99.90;;;;;;5074244;28;20465;-63
2022/04/26 13:13:27;;;;;;;20.10;18.20;;;18.10;99.90;;;;;;5075433;28;20461;-64
2022/04/26 13:15:59;;;;;;;21.20;19.40;;;17.00;99.90;;;;;;5074771;28;20477;-64
2022/04/26 13:18:48;;;;;;;21.40;19.30;;;16.50;99.90;;;;;;5056588;28;20449;-63
2022/04/26 13:21:22;;;;;;;21.70;19.90;;;17.00;99.90;;;;;;5073167;28;20531;-63
2022/04/26 13:23:49;;;;;;;22.90;20.70;;;17.80;99.90;;;;;;5074870;28;20507;-63
2022/04/26 13:26:20;;;;;;;23.27;21.30;;;16.90;99.90;;;;;;5077949;28;20547;-64
2022/04/26 13:28:47;;;;;;;22.30;20.47;;;16.80;99.90;;;;;;5077107;28;20484;-63
2022/04/26 13:31:16;;;;;;;20.73;19.03;;;16.70;99.90;;;;;;5079523;28;20522;-63
2022/04/26 13:33:51;;;;;;;21.77;19.87;;;16.90;99.90;;;;;;5071828;28;20465;-64
2022/04/26 13:36:27;;;;;;;19.40;17.70;;;17.00;99.90;;;;;;5079257;28;20597;-63
2022/04/26 13:39:08;;;;;;;20.30;18.50;;;15.90;99.90;;;;;;5080213;28;20526;-63
2022/04/26 13:41:36;;;;;;;21.27;19.30;;;15.10;99.90;;;;;;5081282;28;20467;-63
2022/04/26 13:44:06;;;;;;;22.43;20.43;;;14.70;99.90;;;;;;5094018;28;20708;-63
2022/04/26 13:46:36;;;;;;;23.97;21.87;;;14.30;99.90;;;;;;5079657;28;20469;-64
2022/04/26 13:49:05;;;;;;;25.80;23.50;;;14.00;1.00;;;;;;5079905;28;20460;-59
2022/04/26 13:51:36;;;;;;;24.23;21.77;;;13.80;1.00;;;;;;5080288;28;20460;-59
2022/04/26 13:54:03;;;;;;;25.03;22.93;;;13.70;1.00;;;;;;5079625;28;20480;-59
2022/04/26 13:56:30;;;;;;;27.53;25.07;;;13.20;1.00;;;;;;5079697;28;20548;-59
2022/04/26 13:58:58;;;;;;;23.27;20.90;;;13.00;1.00;;;;;;5079457;28;20461;-59
2022/04/26 14:01:35;;;;;;;25.10;22.67;;;12.80;73.60;;;;;;5079484;28;20521;-60
2022/04/26 14:04:05;;;;;;;24.67;22.17;;;12.70;99.90;;;;;;5077975;28;20556;-60
2022/04/26 14:06:41;;;;;;;25.43;22.77;;;12.60;1.00;;;;;;5079222;28;20532;-61
2022/04/26 14:09:21;;;;;;;25.70;23.30;;;12.40;1.00;;;;;;5079146;28;20461;-60
2022/04/26 14:11:49;;;;;;;23.63;21.43;;;12.30;19.30;;;;;;5079523;28;20467;-60
2022/04/26 14:22:42;;;;;;;23.30;21.10;;;12.30;99.90;;;;;;5076088;28;20756;-62
2022/04/26 14:25:12;;;;;;;26.17;23.47;;;12.30;71.80;;;;;;5074914;28;20932;-61
2022/04/26 14:27:41;;;;;;;23.37;21.17;;;12.50;6.20;;;;;;5075701;28;20532;-62
2022/04/26 14:30:16;;;;;;;24.30;21.80;;;12.60;20.60;;;;;;5075708;28;20489;-62
2022/04/26 14:32:49;;;;;;;24.47;22.17;;;12.70;9.10;;;;;;5074768;28;20473;-62
2022/04/26 14:35:17;;;;;;;24.27;22.03;;;12.80;99.90;;;;;;5075067;28;20460;-62
2022/04/26 14:37:45;;;;;;;23.60;21.20;;;12.90;99.90;;;;;;5074231;28;20866;-61
2022/04/26 14:40:16;;;;;;;22.47;20.47;;;13.00;1.00;;;;;;5075495;28;20825;-62
2022/04/26 14:42:46;;;;;;;21.03;18.93;;;13.10;99.90;;;;;;5076221;28;20469;-62
2022/04/26 14:45:13;;;;;;;20.13;17.90;;;13.10;99.90;;;;;;5074467;28;20814;-62
2022/04/26 14:47:43;;;;;;;20.50;18.40;;;12.70;99.90;;;;;;5075495;28;20477;-62
2022/04/26 14:50:18;;;;;;;21.67;19.60;;;12.80;1.00;;;;;;5074296;28;20556;-62
2022/04/26 14:52:53;;;;;;;21.60;19.50;;;12.70;1.00;;;;;;5074320;28;20995;-63
2022/04/26 14:55:23;;;;;;;21.37;19.40;;;13.10;1.00;;;;;;5074080;28;20483;-63
2022/04/26 14:57:57;;;;;;;21.50;19.30;;;13.30;99.90;;;;;;5075181;28;21175;-63
2022/04/26 15:00:25;;;;;;;22.33;20.30;;;13.40;99.90;;;;;;5076230;28;20877;-63
2022/04/26 15:02:57;;;;;;;21.97;19.97;;;13.20;99.90;;;;;;5076855;28;20519;-63
2022/04/26 15:05:26;;;;;;;21.13;19.20;;;13.40;99.90;;;;;;5075353;28;20461;-63
2022/04/26 15:10:39;;;;;;;22.83;20.73;;;13.60;99.90;;;;;;5076480;28;20453;-63
2022/04/26 15:18:43;;;;;;;21.73;19.83;;;14.10;38.10;;;;;;5062598;28;20453;-63
2022/04/26 15:21:14;;;;;;;24.43;22.40;;;14.30;99.90;;;;;;5077337;28;20488;-63
2022/04/26 15:23:54;;;;;;;21.00;18.90;;;14.60;99.90;;;;;;5077108;28;20472;-63
2022/04/26 15:26:22;;;;;;;22.73;20.67;;;14.70;1.00;;;;;;5071809;28;20544;-63
2022/04/26 15:28:54;;;;;;;21.90;20.00;;;14.70;1.00;;;;;;5070849;28;20485;-63
2022/04/26 15:31:24;;;;;;;20.33;18.53;;;14.80;1.00;;;;;;5073336;28;21124;-63
2022/04/26 15:33:53;;;;;;;23.50;21.33;;;14.70;1.00;;;;;;5074699;28;20664;-64
2022/04/26 15:36:24;;;;;;;21.33;19.43;;;14.60;1.00;;;;;;5074030;28;20532;-64
2022/04/26 15:38:58;;;;;;;20.50;18.57;;;14.70;1.00;;;;;;5076282;28;20890;-64
2022/04/26 15:41:29;;;;;;;15.23;13.93;;;14.70;1.00;;;;;;5075464;28;20470;-63
2022/04/26 15:44:00;;;;;;;15.60;14.10;;;13.80;1.00;;;;;;5076963;28;20787;-64
2022/04/26 15:46:27;;;;;;;13.67;12.60;;;13.20;1.00;;;;;;5075304;28;20472;-64
2022/04/26 15:48:57;;;;;;;10.47;9.17;;;12.70;1.00;;;;;;5075553;28;20542;-65
2022/04/26 15:51:29;;;;;;;9.57;8.67;;;12.40;1.00;;;;;;5075797;28;20480;-64
2022/04/26 15:54:16;;;;;;;9.40;8.60;;;12.20;1.00;;;;;;5076431;28;20531;-65
2022/04/26 15:56:50;;;;;;;9.70;8.90;;;11.90;1.00;;;;;;5075643;28;20519;-65
2022/04/26 15:59:17;;;;;;;9.43;8.57;;;11.70;1.00;;;;;;5075906;28;20456;-65
2022/04/26 16:01:45;;;;;;;7.80;7.10;;;11.70;1.00;;;;;;5076387;28;20462;-65
2022/04/26 16:04:15;;;;;;;9.53;8.57;;;11.60;1.00;;;;;;5077131;28;20465;-65
2022/04/26 16:06:44;;;;;;;8.60;7.80;;;11.60;1.00;;;;;;5074502;28;20519;-65
2022/04/26 16:20:30;;;;;;;7.80;7.10;;;11.10;1.00;;;;;;5056771;28;20475;-66
2022/04/26 16:23:02;;;;;;;8.70;7.90;;;11.20;1.00;;;;;;5074436;28;20450;-65
2022/04/26 16:25:33;;;;;;;7.80;7.10;;;11.10;1.00;;;;;;5075175;28;20457;-65
2022/04/26 16:28:01;;;;;;;7.93;7.23;;;11.20;1.00;;;;;;5075534;28;20497;-64
2022/04/26 16:30:34;;;;;;;8.20;7.50;;;11.20;1.00;;;;;;5075780;28;20436;-62
2022/04/26 16:33:04;;;;;;;8.27;7.50;;;11.10;93.90;;;;;;5076743;28;20788;-62
2022/04/26 16:35:34;;;;;;;9.07;7.93;;;11.00;99.90;;;;;;5076471;28;20500;-63
2022/04/26 16:38:05;;;;;;;9.17;8.23;;;11.00;99.90;;;;;;5075669;28;20464;-62
2022/04/26 16:40:34;;;;;;;8.53;7.73;;;10.90;99.90;;;;;;5076012;28;20457;-62
2022/04/26 16:43:02;;;;;;;8.60;7.87;;;10.80;99.90;;;;;;5074868;28;20470;-63
2022/04/26 16:45:42;;;;;;;10.37;9.37;;;10.80;99.90;;;;;;5073692;28;20967;-62
2022/04/26 16:48:12;;;;;;;10.40;9.40;;;10.80;1.00;;;;;;5075099;28;21088;-62
2022/04/26 16:50:43;;;;;;;11.53;10.40;;;10.80;1.00;;;;;;5075368;28;20461;-63
2022/04/26 16:53:11;;;;;;;10.20;9.30;;;10.80;1.00;;;;;;5075092;28;20461;-62
2022/04/26 16:55:40;;;;;;;11.37;8.70;;;10.80;61.60;;;;;;5075784;28;20465;-62
2022/04/26 16:58:09;;;;;;;10.40;9.50;;;10.90;99.90;;;;;;5074515;28;20464;-63
2022/04/26 17:00:40;;;;;;;10.47;9.47;;;10.90;99.90;;;;;;5075236;28;20932;-62
2022/04/26 17:03:10;;;;;;;10.67;9.77;;;10.90;99.90;;;;;;5075490;28;20805;-62
2022/04/26 17:08:25;;;;;;;12.00;10.70;;;10.90;99.90;;;;;;5075113;28;20814;-62
2022/04/26 17:13:54;;;;;;;11.70;10.10;;;10.90;9.30;;;;;;5071975;28;20460;-62
2022/04/26 17:16:27;;;;;;;12.37;11.27;;;11.00;1.00;;;;;;5071771;28;20489;-62
2022/04/26 17:19:00;;;;;;;13.47;11.30;;;11.10;1.00;;;;;;5073886;28;20457;-62
2022/04/26 17:21:28;;;;;;;11.87;10.73;;;11.10;1.00;;;;;;5072891;28;20453;-61
2022/04/26 17:24:04;;;;;;;13.10;11.37;;;11.10;1.00;;;;;;5073898;28;20515;-62
2022/04/26 17:26:33;;;;;;;12.60;11.40;;;11.00;1.00;;;;;;5073012;28;20543;-62
2022/04/26 17:29:06;;;;;;;18.10;12.30;;;11.10;1.00;;;;;;5074808;28;20531;-61
2022/04/26 17:31:34;;;;;;;12.17;10.93;;;11.10;1.00;;;;;;5075472;28;20556;-62
2022/04/26 17:34:06;;;;;;;12.93;11.57;;;11.10;99.90;;;;;;5072375;28;20461;-62
2022/04/26 17:36:33;;;;;;;15.00;11.67;;;11.10;99.90;;;;;;5074606;28;20556;-62
2022/04/26 17:39:06;;;;;;;11.00;10.00;;;11.10;99.90;;;;;;5074830;28;20449;-63
2022/04/26 17:41:41;;;;;;;12.13;11.03;;;11.10;1.00;;;;;;5075211;28;20774;-63
2022/04/26 17:44:16;;;;;;;15.10;11.97;;;11.10;99.90;;;;;;5076133;28;20491;-63